Time;durP1;ratioP1;P1;durP2;ratioP2;P2;SDS_P1;SDS_P2;PMS_P1;PMS_P2;Temp;Humidity;BMP_temperature;BMP_pressure;BME280_temperature;BME280_humidity;BME280_pressure;Samples;Min_cycle;Max_cycle;Signal;HPM_P1;HPM_P2
2022/04/15 00:01:21;;;;;;;4.95;2.78;;;7.90;99.90;;;;;;4984257;28;20046;-81
2022/04/15 00:03:47;;;;;;;5.88;2.65;;;7.90;99.90;;;;;;4988561;28;20479;-81
2022/04/15 00:06:13;;;;;;;6.00;2.65;;;7.90;99.90;;;;;;4969752;28;20080;-83
2022/04/15 00:08:40;;;;;;;5.57;2.20;;;7.90;99.90;;;;;;4982484;28;20046;-80
2022/04/15 00:11:06;;;;;;;4.53;1.85;;;7.80;99.90;;;;;;4974475;28;20088;-82
2022/04/15 00:13:33;;;;;;;3.90;1.80;;;7.80;99.90;;;;;;5001517;28;20066;-82
2022/04/15 00:16:03;;;;;;;3.95;1.88;;;7.80;99.90;;;;;;4969060;28;20045;-81
2022/04/15 00:18:29;;;;;;;2.90;1.90;;;7.80;99.90;;;;;;5009003;28;20478;-82
2022/04/15 00:20:55;;;;;;;3.03;1.80;;;7.80;99.90;;;;;;4985090;28;20050;-82
2022/04/15 00:23:24;;;;;;;3.38;1.73;;;7.80;99.90;;;;;;4981863;28;20070;-82
2022/04/15 00:25:54;;;;;;;3.70;1.80;;;7.70;99.90;;;;;;4971378;28;20099;-82
2022/04/15 00:28:20;;;;;;;4.13;2.10;;;7.70;99.90;;;;;;4998493;28;20109;-82
2022/04/15 00:30:47;;;;;;;4.55;1.77;;;7.70;99.90;;;;;;5006912;28;20103;-82
2022/04/15 00:33:13;;;;;;;3.70;1.92;;;7.70;99.90;;;;;;4985541;28;20049;-82
2022/04/15 00:35:39;;;;;;;2.35;1.80;;;7.60;99.90;;;;;;4985198;28;20050;-82
2022/04/15 00:38:05;;;;;;;2.70;2.00;;;7.60;99.90;;;;;;4986205;28;20111;-81
2022/04/15 00:40:31;;;;;;;3.92;2.05;;;7.60;99.90;;;;;;4998833;28;20078;-82
2022/04/15 00:42:57;;;;;;;3.85;2.10;;;7.60;99.90;;;;;;4985574;28;20100;-81
2022/04/15 00:45:23;;;;;;;3.58;2.03;;;7.60;99.90;;;;;;4984456;28;20050;-82
2022/04/15 00:47:53;;;;;;;3.67;2.20;;;7.60;99.90;;;;;;4968929;28;20046;-80
2022/04/15 00:50:22;;;;;;;4.00;2.10;;;7.60;99.90;;;;;;4982293;28;20641;-82
2022/04/15 00:52:50;;;;;;;3.28;2.05;;;8.50;99.90;;;;;;4984021;28;20049;-82
2022/04/15 00:55:18;;;;;;;2.80;2.03;;;7.60;99.90;;;;;;4982626;28;20043;-81
2022/04/15 00:57:51;;;;;;;3.90;2.20;;;7.60;99.90;;;;;;4985895;28;20053;-82
2022/04/15 01:00:19;;;;;;;3.53;1.83;;;7.60;99.90;;;;;;4982516;28;20041;-82
2022/04/15 01:02:46;;;;;;;3.60;2.00;;;7.60;99.90;;;;;;4984434;28;20075;-82
2022/04/15 01:05:13;;;;;;;2.88;1.60;;;7.60;99.90;;;;;;4983610;28;20057;-84
2022/04/15 01:07:48;;;;;;;2.78;1.40;;;7.60;99.90;;;;;;4986379;28;20042;-83
2022/04/15 01:10:15;;;;;;;3.77;1.83;;;7.60;99.90;;;;;;4998707;28;20093;-81
2022/04/15 01:12:47;;;;;;;2.67;1.50;;;7.70;99.90;;;;;;4985782;28;20285;-82
2022/04/15 01:15:13;;;;;;;3.70;1.58;;;7.60;99.90;;;;;;4983611;28;20062;-81
2022/04/15 01:17:40;;;;;;;4.65;1.60;;;7.60;99.90;;;;;;5000515;28;20152;-81
2022/04/15 01:20:11;;;;;;;3.63;1.70;;;7.60;99.90;;;;;;4965572;28;20102;-82
2022/04/15 01:22:40;;;;;;;2.65;1.50;;;7.60;99.90;;;;;;4999086;28;20105;-81
2022/04/15 01:25:07;;;;;;;4.47;1.88;;;7.60;99.90;;;;;;4985470;28;20052;-80
2022/04/15 01:27:34;;;;;;;5.60;2.03;;;7.60;99.90;;;;;;4970517;28;20049;-81
2022/04/15 01:30:00;;;;;;;4.93;1.85;;;7.60;99.90;;;;;;4983723;28;20395;-80
2022/04/15 01:32:26;;;;;;;3.30;2.00;;;7.60;99.90;;;;;;5000463;28;20097;-81
2022/04/15 01:34:52;;;;;;;4.43;1.52;;;7.60;99.90;;;;;;4981029;28;20605;-81
2022/04/15 01:37:20;;;;;;;4.35;1.60;;;7.80;99.90;;;;;;4982543;28;20146;-81
2022/04/15 01:39:46;;;;;;;5.85;1.77;;;7.70;99.90;;;;;;4982886;28;20069;-82
2022/04/15 01:42:13;;;;;;;4.88;1.83;;;7.70;99.90;;;;;;4967856;28;20058;-83
2022/04/15 01:44:40;;;;;;;6.15;1.98;;;7.80;99.90;;;;;;4998750;28;20042;-83
2022/04/15 01:47:07;;;;;;;5.70;1.80;;;7.80;99.90;;;;;;4984159;28;20041;-83
2022/04/15 01:49:33;;;;;;;3.38;1.92;;;7.80;99.90;;;;;;4982603;28;20058;-82
2022/04/15 01:51:58;;;;;;;5.60;1.90;;;7.90;99.90;;;;;;4983991;28;20054;-83
2022/04/15 01:54:27;;;;;;;6.35;2.10;;;7.90;99.90;;;;;;4981158;28;20050;-83
2022/04/15 01:56:54;;;;;;;4.85;2.10;;;7.90;99.90;;;;;;4983381;28;20038;-83
2022/04/15 01:59:20;;;;;;;7.93;2.17;;;8.00;99.90;;;;;;4978390;28;20631;-82
2022/04/15 02:01:46;;;;;;;5.28;2.20;;;8.00;99.90;;;;;;4971677;28;20510;-82
2022/04/15 02:04:12;;;;;;;4.70;2.20;;;8.00;99.90;;;;;;4969251;28;20045;-81
2022/04/15 02:06:37;;;;;;;5.78;2.40;;;8.00;99.90;;;;;;4967149;28;20128;-81
2022/04/15 02:09:03;;;;;;;7.55;2.63;;;8.10;99.90;;;;;;4973504;28;20042;-81
2022/04/15 02:11:29;;;;;;;4.80;2.40;;;8.10;99.90;;;;;;4983257;28;20050;-82
2022/04/15 02:13:54;;;;;;;5.57;2.25;;;8.10;99.90;;;;;;4998237;28;20050;-82
2022/04/15 02:16:20;;;;;;;3.28;1.90;;;8.10;99.90;;;;;;4979778;28;20046;-82
2022/04/15 02:18:46;;;;;;;4.70;2.60;;;8.10;99.90;;;;;;4979899;28;20097;-82
2022/04/15 02:21:11;;;;;;;3.08;1.67;;;8.20;99.90;;;;;;4982473;28;20054;-81
2022/04/15 02:23:37;;;;;;;2.83;1.73;;;8.20;99.90;;;;;;4967336;28;20492;-81
2022/04/15 02:26:03;;;;;;;3.35;1.88;;;8.20;99.90;;;;;;4979603;28;20050;-82
2022/04/15 02:28:29;;;;;;;2.22;1.40;;;8.20;99.90;;;;;;5000073;28;20081;-82
2022/04/15 02:30:55;;;;;;;5.47;1.90;;;8.20;99.90;;;;;;4969539;28;20058;-82
2022/04/15 02:33:21;;;;;;;2.85;1.40;;;8.20;99.90;;;;;;4981552;28;20157;-82
2022/04/15 02:35:48;;;;;;;2.83;1.52;;;8.20;99.90;;;;;;4968746;28;20190;-82
2022/04/15 02:38:13;;;;;;;4.32;1.58;;;8.30;99.90;;;;;;4981329;28;20365;-82
2022/04/15 02:40:39;;;;;;;2.78;1.55;;;8.30;99.90;;;;;;4968258;28;20052;-82
2022/04/15 02:43:06;;;;;;;1.98;1.40;;;8.30;99.90;;;;;;4971404;28;20061;-81
2022/04/15 02:45:32;;;;;;;3.05;1.85;;;8.40;99.90;;;;;;4986787;28;20050;-83
2022/04/15 02:47:58;;;;;;;2.85;1.70;;;8.40;99.90;;;;;;4986450;28;20042;-82
2022/04/15 02:50:24;;;;;;;4.68;1.30;;;8.40;99.90;;;;;;5002795;28;20419;-82
2022/04/15 02:52:50;;;;;;;3.30;1.60;;;8.40;99.90;;;;;;4977397;28;20041;-82
2022/04/15 02:55:16;;;;;;;3.35;1.60;;;8.40;99.90;;;;;;4984905;28;20061;-81
2022/04/15 02:57:42;;;;;;;2.30;1.50;;;8.60;99.90;;;;;;5002327;28;20050;-82
2022/04/15 03:00:08;;;;;;;3.55;1.70;;;8.40;99.90;;;;;;4984764;28;20493;-81
2022/04/15 03:02:34;;;;;;;3.03;1.60;;;8.50;99.90;;;;;;4987494;28;20050;-82
2022/04/15 03:05:01;;;;;;;3.70;2.00;;;8.50;99.90;;;;;;5002486;28;20531;-82
2022/04/15 03:07:27;;;;;;;3.13;1.88;;;8.50;99.90;;;;;;4984386;28;20042;-83
2022/04/15 03:09:53;;;;;;;3.40;1.65;;;8.50;99.90;;;;;;4970952;28;20061;-82
2022/04/15 03:12:19;;;;;;;4.97;1.45;;;8.50;99.90;;;;;;4982867;28;20054;-83
2022/04/15 03:14:44;;;;;;;5.88;2.17;;;8.60;99.90;;;;;;4987935;28;20519;-82
2022/04/15 03:17:12;;;;;;;3.95;2.17;;;8.60;99.90;;;;;;4987472;28;20061;-80
2022/04/15 03:19:38;;;;;;;2.38;2.08;;;8.60;99.90;;;;;;5001779;28;20045;-82
2022/04/15 03:22:05;;;;;;;4.30;2.10;;;8.60;99.90;;;;;;4973321;28;20100;-82
2022/04/15 03:24:31;;;;;;;4.47;2.20;;;8.60;99.90;;;;;;4984708;28;20492;-83
2022/04/15 03:26:57;;;;;;;3.15;2.05;;;8.60;99.90;;;;;;4986083;28;20074;-84
2022/04/15 03:29:22;;;;;;;3.25;2.08;;;8.70;99.90;;;;;;4987292;28;20050;-83
2022/04/15 03:31:48;;;;;;;5.05;2.08;;;8.60;99.90;;;;;;4969435;28;20519;-82
2022/04/15 03:34:14;;;;;;;3.65;2.20;;;8.60;99.90;;;;;;4983824;28;20064;-83
2022/04/15 03:36:40;;;;;;;3.67;2.28;;;8.70;99.90;;;;;;5002850;28;20052;-83
2022/04/15 03:39:06;;;;;;;3.95;2.35;;;8.70;99.90;;;;;;4970037;28;20046;-84
2022/04/15 03:41:32;;;;;;;6.07;2.03;;;8.70;99.90;;;;;;4986002;28;20496;-83
2022/04/15 03:43:58;;;;;;;4.57;2.15;;;8.70;99.90;;;;;;4985445;28;20510;-83
2022/04/15 03:46:23;;;;;;;3.97;2.00;;;8.70;99.90;;;;;;4992075;28;20054;-83
2022/04/15 03:48:49;;;;;;;2.60;1.88;;;8.70;99.90;;;;;;4984830;28;20062;-83
2022/04/15 03:51:15;;;;;;;3.25;2.10;;;8.70;99.90;;;;;;4970596;28;20518;-83
2022/04/15 03:53:41;;;;;;;3.92;1.50;;;8.70;99.90;;;;;;4971445;28;20404;-83
2022/04/15 03:56:07;;;;;;;2.40;2.00;;;8.70;99.90;;;;;;4969928;28;20050;-83
2022/04/15 03:58:35;;;;;;;2.78;1.83;;;8.70;99.90;;;;;;4958167;28;20109;-83
2022/04/15 04:01:01;;;;;;;4.93;1.75;;;8.70;99.90;;;;;;5002205;28;20050;-83
2022/04/15 04:03:26;;;;;;;2.40;1.52;;;8.70;99.90;;;;;;4970320;28;20056;-83
2022/04/15 04:05:52;;;;;;;2.28;1.50;;;8.70;99.90;;;;;;4988277;28;20041;-83
2022/04/15 04:08:18;;;;;;;3.85;1.98;;;8.70;99.90;;;;;;4965382;28;20127;-83
2022/04/15 04:10:44;;;;;;;3.33;1.80;;;8.70;99.90;;;;;;4984628;28;20053;-83
2022/04/15 04:13:09;;;;;;;3.88;2.30;;;8.70;99.90;;;;;;4970999;28;20058;-83
2022/04/15 04:15:35;;;;;;;4.53;1.80;;;8.70;99.90;;;;;;4983419;28;20101;-83
2022/04/15 04:18:01;;;;;;;3.53;2.38;;;8.70;99.90;;;;;;4985828;28;20137;-83
2022/04/15 04:20:28;;;;;;;4.45;2.38;;;8.70;99.90;;;;;;4982802;28;20095;-82
2022/04/15 04:22:54;;;;;;;5.05;2.47;;;8.80;99.90;;;;;;4984065;28;20129;-82
2022/04/15 04:25:20;;;;;;;5.68;2.60;;;8.80;99.90;;;;;;4982773;28;20101;-82
2022/04/15 04:27:46;;;;;;;5.18;2.10;;;8.80;99.90;;;;;;4973601;28;20045;-82
2022/04/15 04:30:13;;;;;;;6.80;2.70;;;8.80;99.90;;;;;;4985087;28;20057;-81
2022/04/15 04:32:40;;;;;;;4.38;2.20;;;8.80;99.90;;;;;;5000507;28;20487;-83
2022/04/15 04:35:06;;;;;;;5.22;2.45;;;8.80;99.90;;;;;;4968846;28;20050;-83
2022/04/15 04:37:32;;;;;;;7.20;3.20;;;8.80;99.90;;;;;;4968119;28;20038;-82
2022/04/15 04:39:58;;;;;;;6.95;2.70;;;8.80;99.90;;;;;;4983281;28;20069;-82
2022/04/15 04:42:25;;;;;;;3.72;2.50;;;8.80;99.90;;;;;;4981257;28;20136;-83
2022/04/15 04:44:52;;;;;;;5.55;2.60;;;8.80;99.90;;;;;;4999138;28;20053;-82
2022/04/15 04:47:20;;;;;;;4.68;2.45;;;8.90;99.90;;;;;;4983888;28;20040;-83
2022/04/15 04:49:46;;;;;;;5.72;2.60;;;8.90;99.90;;;;;;4981301;28;20151;-83
2022/04/15 04:52:13;;;;;;;5.18;2.90;;;8.90;99.90;;;;;;4978542;28;20096;-83
2022/04/15 04:54:39;;;;;;;5.13;2.20;;;8.90;99.90;;;;;;4979648;28;20049;-82
2022/04/15 04:57:05;;;;;;;6.75;2.65;;;8.90;99.90;;;;;;5013427;28;20180;-82
2022/04/15 04:59:32;;;;;;;5.03;3.30;;;8.90;99.90;;;;;;4962976;28;20038;-83
2022/04/15 05:01:58;;;;;;;5.15;3.10;;;8.90;99.90;;;;;;4994785;28;20061;-84
2022/04/15 05:04:25;;;;;;;5.30;3.30;;;8.90;99.90;;;;;;4998065;28;20058;-84
2022/04/15 05:06:51;;;;;;;4.55;3.22;;;8.90;99.90;;;;;;4995223;28;20042;-82
2022/04/15 05:09:18;;;;;;;4.22;3.08;;;8.90;99.90;;;;;;4997151;28;20069;-84
2022/04/15 05:11:44;;;;;;;4.20;2.40;;;8.90;99.90;;;;;;4983611;28;20392;-83
2022/04/15 05:14:10;;;;;;;5.13;2.20;;;8.80;99.90;;;;;;4980595;28;20065;-81
2022/04/15 05:16:36;;;;;;;5.18;2.42;;;8.90;99.90;;;;;;4979122;28;20057;-83
2022/04/15 05:19:02;;;;;;;2.78;1.85;;;8.90;99.90;;;;;;4966185;28;20057;-84
2022/04/15 05:21:28;;;;;;;3.42;1.98;;;8.80;99.90;;;;;;4978889;28;20046;-84
2022/04/15 05:23:53;;;;;;;3.92;2.13;;;8.80;99.90;;;;;;4982796;28;20054;-83
2022/04/15 05:26:20;;;;;;;3.70;2.30;;;8.80;99.90;;;;;;4982654;28;20061;-83
2022/04/15 05:28:48;;;;;;;3.58;2.80;;;8.80;99.90;;;;;;4973818;28;20042;-83
2022/04/15 05:31:14;;;;;;;4.97;3.00;;;8.80;99.90;;;;;;5000386;28;20060;-84
2022/04/15 05:33:40;;;;;;;7.00;3.53;;;8.80;99.90;;;;;;4981890;28;20117;-84
2022/04/15 05:36:06;;;;;;;6.45;3.63;;;8.80;99.90;;;;;;4973140;28;20057;-82
2022/04/15 05:38:31;;;;;;;4.07;3.20;;;8.90;99.90;;;;;;4965141;28;20361;-81
2022/04/15 05:40:57;;;;;;;5.05;3.17;;;8.90;99.90;;;;;;4948631;28;20085;-84
2022/04/15 05:43:23;;;;;;;3.97;3.35;;;8.90;99.90;;;;;;4969716;28;20595;-84
2022/04/15 05:45:49;;;;;;;5.05;2.80;;;8.90;99.90;;;;;;4982040;28;20050;-85
2022/04/15 05:48:15;;;;;;;4.72;2.97;;;9.40;99.90;;;;;;4979275;28;20045;-83
2022/04/15 05:50:41;;;;;;;5.50;3.08;;;8.90;99.90;;;;;;4979160;28;20500;-84
2022/04/15 05:53:07;;;;;;;4.25;3.30;;;8.90;99.90;;;;;;4983369;28;20042;-83
2022/04/15 05:55:33;;;;;;;5.20;3.58;;;8.90;99.90;;;;;;4997287;28;20065;-83
2022/04/15 05:57:59;;;;;;;6.20;3.20;;;8.90;99.90;;;;;;4979756;28;20504;-82
2022/04/15 06:00:24;;;;;;;3.55;2.70;;;8.90;99.90;;;;;;4995709;28;20045;-83
2022/04/15 06:02:50;;;;;;;4.43;2.90;;;8.90;99.90;;;;;;4947896;28;20048;-83
2022/04/15 06:05:16;;;;;;;3.67;2.80;;;8.90;99.90;;;;;;4979453;28;20407;-84
2022/04/15 06:07:42;;;;;;;4.43;3.10;;;8.80;99.90;;;;;;4979625;28;20061;-83
2022/04/15 06:10:08;;;;;;;3.95;3.03;;;8.90;99.90;;;;;;4979608;28;20053;-84
2022/04/15 06:15:31;;;;;;;4.38;2.47;;;10.00;99.90;;;;;;4994022;28;20050;-84
2022/04/15 06:17:58;;;;;;;4.35;2.58;;;8.80;99.90;;;;;;4979999;28;20380;-81
2022/04/15 06:20:24;;;;;;;2.83;2.40;;;8.80;99.90;;;;;;4971477;28;20050;-84
2022/04/15 06:22:50;;;;;;;3.75;3.15;;;8.80;99.90;;;;;;4987327;28;20042;-83
2022/04/15 06:25:19;;;;;;;4.10;2.40;;;8.80;99.90;;;;;;4982137;28;20045;-83
2022/04/15 06:27:54;;;;;;;3.17;2.55;;;8.80;99.90;;;;;;4982557;28;20136;-85
2022/04/15 06:30:24;;;;;;;3.20;2.67;;;8.10;99.90;;;;;;4991041;28;20117;-82
2022/04/15 06:32:52;;;;;;;3.20;2.25;;;8.90;99.90;;;;;;4983572;28;20042;-82
2022/04/15 06:35:18;;;;;;;3.08;2.30;;;8.90;99.90;;;;;;4982239;28;20608;-83
2022/04/15 06:37:44;;;;;;;2.80;2.10;;;9.00;99.90;;;;;;4980344;28;20053;-82
2022/04/15 06:40:10;;;;;;;3.08;2.25;;;9.00;99.90;;;;;;4964741;28;20416;-82
2022/04/15 06:42:37;;;;;;;3.20;2.50;;;9.00;99.90;;;;;;4982635;28;20053;-83
2022/04/15 06:45:04;;;;;;;5.30;2.42;;;9.00;99.90;;;;;;4989706;28;20399;-82
2022/04/15 06:47:30;;;;;;;4.82;2.13;;;9.10;99.90;;;;;;4995573;28;20039;-81
2022/04/15 06:49:56;;;;;;;3.63;2.28;;;9.20;99.90;;;;;;4979486;28;20046;-83
2022/04/15 06:52:22;;;;;;;3.05;1.83;;;9.10;99.90;;;;;;4981474;28;20050;-79
2022/04/15 06:54:48;;;;;;;3.10;1.83;;;9.20;99.90;;;;;;4980263;28;20042;-83
2022/04/15 06:57:14;;;;;;;2.88;1.88;;;9.20;99.90;;;;;;4982536;28;20053;-81
2022/04/15 06:59:41;;;;;;;4.05;1.63;;;9.10;99.90;;;;;;4986136;28;20936;-83
2022/04/15 07:02:07;;;;;;;5.15;1.95;;;9.20;99.90;;;;;;4997936;28;20042;-84
2022/04/15 07:04:34;;;;;;;3.70;2.30;;;9.20;99.90;;;;;;4989512;28;20041;-84
2022/04/15 07:07:00;;;;;;;4.82;2.40;;;9.20;99.90;;;;;;4995696;28;20085;-82
2022/04/15 07:09:27;;;;;;;3.47;2.65;;;9.10;99.90;;;;;;4979306;28;20037;-83
2022/04/15 07:11:53;;;;;;;3.53;2.92;;;9.20;99.90;;;;;;4978892;28;20515;-82
2022/04/15 07:14:19;;;;;;;6.38;3.22;;;9.20;99.90;;;;;;4993706;28;20384;-83
2022/04/15 07:16:45;;;;;;;6.63;3.63;;;9.20;99.90;;;;;;4979423;28;20065;-83
2022/04/15 07:19:11;;;;;;;5.88;3.58;;;9.20;99.90;;;;;;4979973;28;20135;-83
2022/04/15 07:21:38;;;;;;;4.65;3.83;;;9.20;99.90;;;;;;4979784;28;20057;-84
2022/04/15 07:24:04;;;;;;;7.25;4.15;;;9.20;99.90;;;;;;4964375;28;20050;-83
2022/04/15 07:26:31;;;;;;;6.30;4.78;;;9.20;99.90;;;;;;4980823;28;20459;-83
2022/04/15 07:28:57;;;;;;;5.05;4.25;;;9.20;99.90;;;;;;4980424;28;20046;-82
2022/04/15 07:31:24;;;;;;;5.45;4.55;;;9.20;99.90;;;;;;4966432;28;20053;-82
2022/04/15 07:33:53;;;;;;;5.65;4.55;;;9.20;99.90;;;;;;4997934;28;20561;-83
2022/04/15 07:36:42;;;;;;;6.10;4.65;;;9.30;99.90;;;;;;4976062;28;20060;-84
2022/04/15 07:39:10;;;;;;;6.90;4.30;;;9.30;99.90;;;;;;4970149;28;20108;-83
2022/04/15 07:41:38;;;;;;;7.85;5.53;;;9.30;99.90;;;;;;4985258;28;20046;-83
2022/04/15 07:44:07;;;;;;;9.23;5.80;;;9.30;99.90;;;;;;4983951;28;20053;-83
2022/04/15 07:46:35;;;;;;;6.57;5.25;;;9.30;99.90;;;;;;4984990;28;20047;-81
2022/04/15 07:49:04;;;;;;;7.47;5.50;;;9.60;99.90;;;;;;5014996;28;20054;-81
2022/04/15 07:51:31;;;;;;;7.95;5.97;;;9.30;99.90;;;;;;4983376;28;20116;-81
2022/04/15 07:53:57;;;;;;;9.57;6.10;;;9.40;99.90;;;;;;4983290;28;20108;-81
2022/04/15 07:56:23;;;;;;;7.55;5.95;;;9.40;99.90;;;;;;4983300;28;20051;-81
2022/04/15 07:58:50;;;;;;;8.05;6.05;;;9.20;99.90;;;;;;4982242;28;20046;-81
2022/04/15 08:01:34;;;;;;;11.77;6.18;;;9.40;99.90;;;;;;5000299;28;20109;-81
2022/04/15 08:04:08;;;;;;;;;;;9.40;99.90;;;;;;4979969;28;20120;-81
2022/04/15 08:06:39;;;;;;;8.70;6.25;;;9.40;99.90;;;;;;4984009;28;20003;-80
2022/04/15 08:09:34;;;;;;;8.25;6.03;;;9.40;99.90;;;;;;4999929;28;20046;-81
2022/04/15 08:12:38;;;;;;;8.68;6.20;;;9.00;99.90;;;;;;4977451;28;20054;-82
2022/04/15 08:15:05;;;;;;;8.77;5.90;;;8.60;99.90;;;;;;4915856;28;20575;-81
2022/04/15 08:17:33;;;;;;;9.65;6.18;;;9.40;99.90;;;;;;4974231;28;20054;-81
2022/04/15 08:19:59;;;;;;;7.13;5.47;;;9.50;99.90;;;;;;4997571;28;20043;-82
2022/04/15 08:22:25;;;;;;;8.68;6.28;;;9.60;99.90;;;;;;4997819;28;20558;-82
2022/04/15 08:24:50;;;;;;;11.20;6.13;;;9.80;99.90;;;;;;4967696;28;20049;-83
2022/04/15 08:27:19;;;;;;;10.90;5.93;;;10.10;99.90;;;;;;4984205;28;20824;-84
2022/04/15 08:29:45;;;;;;;10.45;6.53;;;10.40;99.90;;;;;;4997467;28;20042;-84
2022/04/15 08:32:11;;;;;;;10.63;6.78;;;10.70;99.90;;;;;;4982893;28;20100;-81
2022/04/15 08:34:37;;;;;;;7.93;6.00;;;10.90;99.90;;;;;;4982853;28;20057;-81
2022/04/15 08:37:03;;;;;;;9.93;6.35;;;11.10;99.90;;;;;;4999475;28;20052;-82
2022/04/15 08:39:29;;;;;;;10.27;6.53;;;11.20;99.90;;;;;;4993881;28;20124;-80
2022/04/15 08:41:57;;;;;;;8.40;5.82;;;11.50;99.90;;;;;;4981619;28;20573;-82
2022/04/15 08:44:24;;;;;;;8.15;5.38;;;11.80;99.90;;;;;;4965329;28;20046;-82
2022/04/15 08:46:51;;;;;;;9.05;5.72;;;11.50;99.90;;;;;;4981789;28;20165;-82
2022/04/15 08:49:19;;;;;;;8.68;6.10;;;12.10;99.90;;;;;;4984405;28;20514;-85
2022/04/15 08:51:50;;;;;;;8.45;5.95;;;12.20;99.90;;;;;;5013264;28;20132;-84
2022/04/15 08:54:17;;;;;;;7.93;5.80;;;12.30;99.90;;;;;;4966379;28;20060;-82
2022/04/15 08:56:43;;;;;;;8.23;5.82;;;12.30;99.90;;;;;;4980754;28;20049;-82
2022/04/15 08:59:09;;;;;;;7.63;5.05;;;12.40;99.90;;;;;;4977108;28;20050;-81
2022/04/15 09:01:35;;;;;;;5.93;4.78;;;12.30;99.90;;;;;;4963770;28;20164;-82
2022/04/15 09:04:02;;;;;;;6.55;4.60;;;12.40;99.90;;;;;;4976911;28;20105;-84
2022/04/15 09:06:29;;;;;;;8.13;4.85;;;12.50;99.90;;;;;;4966467;28;20038;-82
2022/04/15 09:09:07;;;;;;;7.18;4.57;;;12.50;99.90;;;;;;4995541;28;20050;-82
2022/04/15 09:11:36;;;;;;;6.70;4.78;;;12.50;99.90;;;;;;4982263;28;20045;-80
2022/04/15 09:14:07;;;;;;;7.38;4.82;;;12.50;99.90;;;;;;4995968;28;20053;-82
2022/04/15 09:16:42;;;;;;;7.85;4.88;;;12.60;99.90;;;;;;4981022;28;20064;-80
2022/04/15 09:19:09;;;;;;;6.38;4.80;;;12.60;99.90;;;;;;4997697;28;20105;-82
2022/04/15 09:21:37;;;;;;;6.70;4.93;;;12.60;99.90;;;;;;4970835;28;20065;-82
2022/04/15 09:24:04;;;;;;;8.18;4.72;;;12.50;99.90;;;;;;4995614;28;20253;-81
2022/04/15 09:26:29;;;;;;;8.40;4.55;;;12.60;99.90;;;;;;4971800;28;20038;-81
2022/04/15 09:28:55;;;;;;;7.30;4.63;;;11.60;99.90;;;;;;4964754;28;20476;-81
2022/04/15 09:31:23;;;;;;;6.85;4.72;;;12.60;99.90;;;;;;4981404;28;20507;-81
2022/04/15 09:33:58;;;;;;;7.18;4.43;;;12.60;99.90;;;;;;4997450;28;20111;-81
2022/04/15 09:36:35;;;;;;;7.22;4.40;;;12.60;99.90;;;;;;5004655;28;20058;-81
2022/04/15 09:39:10;;;;;;;6.95;4.15;;;12.70;99.90;;;;;;4980982;28;20132;-80
2022/04/15 09:41:40;;;;;;;6.72;4.00;;;12.70;99.90;;;;;;4994195;28;20057;-81
2022/04/15 09:44:15;;;;;;;5.32;3.40;;;12.70;99.90;;;;;;4979688;28;20068;-81
2022/04/15 09:46:42;;;;;;;4.63;3.63;;;12.70;99.90;;;;;;4964013;28;20427;-81
2022/04/15 09:49:09;;;;;;;4.80;3.58;;;12.60;99.90;;;;;;4980303;28;20124;-81
2022/04/15 09:51:47;;;;;;;6.18;3.50;;;12.60;99.90;;;;;;4981366;28;20054;-82
2022/04/15 09:54:27;;;;;;;5.43;3.63;;;12.90;99.90;;;;;;4997250;28;20402;-85
2022/04/15 09:56:55;;;;;;;6.70;3.70;;;13.20;99.90;;;;;;4981846;28;20746;-82
2022/04/15 09:59:23;;;;;;;5.88;3.38;;;13.40;99.90;;;;;;4977978;28;20064;-83
2022/04/15 10:01:54;;;;;;;6.05;3.38;;;13.60;99.90;;;;;;4971109;28;20050;-82
2022/04/15 10:04:23;;;;;;;4.32;3.20;;;14.10;99.90;;;;;;4980873;28;20734;-83
2022/04/15 10:06:50;;;;;;;4.63;3.30;;;13.70;99.90;;;;;;4976910;28;20050;-82
2022/04/15 10:09:17;;;;;;;4.72;3.08;;;14.10;99.90;;;;;;4981119;28;20042;-83
2022/04/15 10:11:44;;;;;;;5.13;3.40;;;14.40;99.90;;;;;;4980520;28;20045;-82
2022/04/15 10:14:11;;;;;;;5.85;3.50;;;14.60;99.90;;;;;;4977739;28;20129;-81
2022/04/15 10:16:39;;;;;;;4.47;2.88;;;14.60;99.90;;;;;;4995550;28;20445;-82
2022/04/15 10:19:07;;;;;;;7.57;3.17;;;14.40;99.90;;;;;;4994021;28;20046;-82
2022/04/15 10:21:59;;;;;;;4.78;3.10;;;14.60;99.90;;;;;;4987704;28;20137;-82
2022/04/15 10:24:25;;;;;;;4.43;2.63;;;14.60;99.90;;;;;;4977282;28;20161;-82
2022/04/15 10:26:57;;;;;;;3.47;2.67;;;14.50;99.90;;;;;;4977877;28;20125;-82
2022/04/15 10:29:23;;;;;;;4.70;2.67;;;14.50;99.90;;;;;;4979790;28;20042;-82
2022/04/15 10:31:49;;;;;;;5.13;2.67;;;14.40;99.90;;;;;;4979267;28;20050;-81
2022/04/15 10:34:21;;;;;;;3.47;2.70;;;14.40;99.90;;;;;;4979371;28;20054;-83
2022/04/15 10:36:52;;;;;;;4.97;3.00;;;14.30;99.90;;;;;;4979370;28;20058;-82
2022/04/15 10:39:25;;;;;;;4.82;2.97;;;14.30;99.90;;;;;;4978615;28;20054;-82
2022/04/15 10:41:53;;;;;;;5.47;2.83;;;14.20;99.90;;;;;;4977556;28;20132;-83
2022/04/15 10:44:35;;;;;;;5.78;3.10;;;14.10;99.90;;;;;;4993587;28;20522;-83
2022/04/15 10:47:09;;;;;;;6.47;2.95;;;14.00;99.90;;;;;;4994015;28;20054;-82
2022/04/15 10:49:37;;;;;;;8.23;3.20;;;13.90;99.90;;;;;;4978145;28;20064;-82
2022/04/15 10:52:16;;;;;;;4.50;2.90;;;13.90;99.90;;;;;;4979371;28;20045;-88
2022/04/15 10:54:48;;;;;;;4.55;2.47;;;14.10;99.90;;;;;;4993087;28;20566;-82
2022/04/15 10:57:33;;;;;;;4.53;3.00;;;14.10;99.90;;;;;;4983183;28;20043;-81
2022/04/15 11:02:50;;;;;;;3.38;2.65;;;14.20;99.90;;;;;;4997549;28;20104;-82
2022/04/15 11:05:51;;;;;;;3.53;2.67;;;14.30;99.90;;;;;;5001025;28;20403;-82
2022/04/15 11:08:18;;;;;;;3.67;2.60;;;14.30;99.90;;;;;;4998861;28;20046;-82
2022/04/15 11:10:58;;;;;;;3.38;2.42;;;14.40;99.90;;;;;;4991760;28;20112;-82
2022/04/15 11:13:45;;;;;;;4.75;2.83;;;14.50;99.90;;;;;;4985101;28;20484;-83
2022/04/15 11:18:53;;;;;;;4.88;2.92;;;14.80;99.90;;;;;;5001999;28;20475;-82
2022/04/15 11:21:35;;;;;;;4.50;2.92;;;14.90;99.90;;;;;;4992660;28;20403;-82
2022/04/15 11:24:07;;;;;;;4.63;2.97;;;14.90;99.90;;;;;;4982527;28;20053;-84
2022/04/15 11:26:35;;;;;;;3.40;2.80;;;14.90;99.90;;;;;;4980331;28;20050;-83
2022/04/15 11:29:04;;;;;;;3.25;2.45;;;14.30;99.90;;;;;;4996648;28;20121;-83
2022/04/15 11:31:30;;;;;;;3.95;2.30;;;14.90;99.90;;;;;;4983239;28;20038;-83
2022/04/15 11:34:05;;;;;;;3.88;3.08;;;15.10;99.90;;;;;;4982690;28;20470;-83
2022/04/15 11:36:33;;;;;;;5.47;3.35;;;15.00;99.90;;;;;;4997736;28;20137;-83
2022/04/15 11:39:01;;;;;;;6.22;3.40;;;15.30;99.90;;;;;;4980297;28;20057;-83
2022/04/15 11:41:28;;;;;;;4.90;3.08;;;15.80;99.90;;;;;;4997338;28;20050;-83
2022/04/15 11:44:00;;;;;;;6.60;3.50;;;16.00;99.90;;;;;;4995768;28;20050;-84
2022/04/15 11:46:53;;;;;;;4.63;3.13;;;16.00;99.90;;;;;;4981183;28;20081;-84
2022/04/15 11:49:30;;;;;;;6.07;3.10;;;15.80;99.90;;;;;;4982311;28;20068;-84
2022/04/15 11:51:57;;;;;;;6.13;3.42;;;15.70;99.90;;;;;;4979988;28;20432;-83
2022/04/15 11:54:34;;;;;;;4.82;2.95;;;15.60;99.90;;;;;;4979454;28;20084;-83
2022/04/15 11:57:03;;;;;;;5.32;2.70;;;15.60;99.90;;;;;;4983270;28;20562;-83
2022/04/15 12:02:42;;;;;;;4.60;2.85;;;15.60;99.90;;;;;;4977808;28;20054;-85
2022/04/15 12:05:08;;;;;;;4.18;2.72;;;15.60;99.90;;;;;;4983530;28;20133;-84
2022/04/15 12:07:35;;;;;;;3.60;2.58;;;15.50;99.90;;;;;;4981040;28;20054;-83
2022/04/15 12:10:01;;;;;;;5.47;2.95;;;15.00;99.90;;;;;;4980881;28;20056;-82
2022/04/15 12:12:27;;;;;;;4.28;2.83;;;15.40;99.90;;;;;;4981697;28;20067;-83
2022/04/15 12:14:55;;;;;;;5.53;3.15;;;15.50;99.90;;;;;;4985956;28;20078;-83
2022/04/15 12:17:22;;;;;;;7.07;2.90;;;15.50;99.90;;;;;;4964643;28;20054;-83
2022/04/15 12:19:49;;;;;;;6.00;3.42;;;15.40;99.90;;;;;;4979609;28;20042;-83
2022/04/15 12:22:16;;;;;;;5.18;3.10;;;15.40;99.90;;;;;;4981160;28;20050;-84
2022/04/15 12:24:42;;;;;;;4.07;3.38;;;15.30;99.90;;;;;;4980940;28;20038;-83
2022/04/15 12:27:10;;;;;;;5.15;3.13;;;15.50;99.90;;;;;;4996174;28;20053;-84
2022/04/15 12:29:47;;;;;;;5.05;3.33;;;15.50;99.90;;;;;;4981803;28;20053;-84
2022/04/15 12:32:29;;;;;;;5.50;3.58;;;15.50;99.90;;;;;;4981447;28;20061;-82
2022/04/15 12:34:55;;;;;;;5.30;3.55;;;15.50;99.90;;;;;;4979898;28;20078;-84
2022/04/15 12:37:47;;;;;;;5.30;3.53;;;15.50;99.90;;;;;;4981673;28;20082;-83
2022/04/15 12:40:22;;;;;;;6.32;3.70;;;15.90;99.90;;;;;;5007216;28;20104;-83
2022/04/15 12:42:53;;;;;;;5.28;3.45;;;16.10;99.90;;;;;;4981538;28;20101;-82
2022/04/15 12:45:21;;;;;;;5.35;3.75;;;16.10;99.90;;;;;;4998932;28;20057;-81
2022/04/15 12:48:10;;;;;;;6.72;3.65;;;16.10;99.90;;;;;;4997426;28;20054;-83
2022/04/15 12:50:37;;;;;;;4.10;3.28;;;16.10;99.90;;;;;;4998804;28;20050;-82
2022/04/15 12:53:24;;;;;;;5.82;3.33;;;15.30;99.90;;;;;;4966444;28;20057;-83
2022/04/15 12:55:51;;;;;;;5.25;3.15;;;16.00;99.90;;;;;;4982002;28;20085;-84
2022/04/15 12:58:21;;;;;;;5.22;2.95;;;16.00;99.90;;;;;;4970094;28;20049;-84
2022/04/15 13:00:51;;;;;;;5.80;3.28;;;16.20;99.90;;;;;;4996728;28;20050;-83
2022/04/15 13:03:50;;;;;;;6.82;3.30;;;16.20;99.90;;;;;;4980144;28;20061;-83
2022/04/15 13:06:15;;;;;;;4.32;3.55;;;16.50;99.90;;;;;;4987792;28;20046;-83
2022/04/15 13:08:41;;;;;;;4.32;3.15;;;16.70;99.90;;;;;;4963568;28;20104;-83
2022/04/15 13:11:07;;;;;;;4.78;3.38;;;16.80;99.90;;;;;;4987867;28;20054;-83